Time;durP1;ratioP1;P1;durP2;ratioP2;P2;SDS_P1;SDS_P2;PMS_P1;PMS_P2;Temp;Humidity;BMP_temperature;BMP_pressure;BME280_temperature;BME280_humidity;BME280_pressure;Samples;Min_cycle;Max_cycle;Signal;HPM_P1;HPM_P2
2021/11/12 00:02:44;;;;;;;45.40;21.50;;;9.20;1.00;;;;;;5072764;28;20209;-67
2021/11/12 00:13:18;;;;;;;61.30;23.83;;;9.40;4.90;;;;;;5072434;28;20205;-68
2021/11/12 00:15:48;;;;;;;35.03;19.27;;;9.30;11.00;;;;;;5072505;28;20210;-68
2021/11/12 00:18:18;;;;;;;62.03;24.73;;;9.30;25.80;;;;;;5072386;28;20202;-66
2021/11/12 00:20:45;;;;;;;63.07;23.83;;;9.40;60.40;;;;;;5073006;28;20268;-68
2021/11/12 00:23:13;;;;;;;36.47;20.23;;;9.40;99.90;;;;;;5072519;28;20206;-68
2021/11/12 00:25:41;;;;;;;55.53;22.33;;;9.40;99.90;;;;;;5072990;28;20230;-68
2021/11/12 00:28:08;;;;;;;52.47;21.80;;;9.40;99.90;;;;;;5072191;28;20297;-68
2021/11/12 00:30:48;;;;;;;39.90;20.87;;;9.50;99.90;;;;;;5072417;28;20210;-67
2021/11/12 00:33:31;;;;;;;57.27;25.57;;;9.50;99.90;;;;;;5071992;28;20737;-68
2021/11/12 00:36:05;;;;;;;62.20;24.03;;;9.50;99.90;;;;;;5071427;28;20206;-68
2021/11/12 00:38:35;;;;;;;50.03;21.67;;;9.40;99.90;;;;;;5064174;28;20676;-68
2021/11/12 00:41:13;;;;;;;56.63;22.63;;;9.40;99.90;;;;;;5071652;28;20866;-68
2021/11/12 00:43:42;;;;;;;48.50;21.97;;;9.30;99.90;;;;;;5070973;28;20691;-68
2021/11/12 00:46:15;;;;;;;72.50;26.43;;;9.40;99.90;;;;;;5071508;28;20226;-68
2021/11/12 00:48:47;;;;;;;29.90;17.80;;;9.40;99.90;;;;;;5072619;28;20202;-68
2021/11/12 00:51:22;;;;;;;34.10;18.77;;;9.40;99.90;;;;;;5071178;28;20695;-67
2021/11/12 00:53:55;;;;;;;36.17;19.63;;;9.50;99.90;;;;;;5072166;28;20205;-68
2021/11/12 00:56:24;;;;;;;46.37;20.73;;;9.60;99.90;;;;;;5072090;28;20594;-68
2021/11/12 00:58:53;;;;;;;51.30;23.20;;;9.60;99.90;;;;;;5071824;28;20202;-68
2021/11/12 01:01:21;;;;;;;50.13;22.20;;;9.60;99.90;;;;;;5071195;28;20574;-67
2021/11/12 01:03:50;;;;;;;36.37;19.07;;;9.60;99.90;;;;;;5071102;28;20233;-67
2021/11/12 01:06:17;;;;;;;63.20;24.20;;;9.60;99.90;;;;;;5070992;28;20654;-67
2021/11/12 01:08:45;;;;;;;55.17;21.00;;;9.60;99.90;;;;;;5071776;28;20609;-68
2021/11/12 01:11:15;;;;;;;46.37;19.97;;;9.60;99.90;;;;;;5071492;28;20268;-68
2021/11/12 01:13:42;;;;;;;33.40;16.93;;;9.60;99.90;;;;;;5071902;28;20213;-68
2021/11/12 01:16:10;;;;;;;47.40;19.47;;;9.60;99.90;;;;;;5071470;28;20214;-69
2021/11/12 01:18:38;;;;;;;61.83;21.53;;;9.60;99.90;;;;;;5071442;28;20206;-68
2021/11/12 01:21:10;;;;;;;40.40;17.57;;;9.60;99.90;;;;;;5071218;28;20218;-68
2021/11/12 01:23:39;;;;;;;56.13;20.90;;;9.60;99.90;;;;;;5071493;28;20206;-68
2021/11/12 01:26:06;;;;;;;50.50;20.57;;;9.60;99.90;;;;;;5070762;28;20237;-68
2021/11/12 01:28:34;;;;;;;37.50;18.73;;;9.70;99.90;;;;;;5071193;28;20206;-69
2021/11/12 01:31:02;;;;;;;47.00;19.57;;;9.60;99.90;;;;;;5070842;28;20233;-68
2021/11/12 01:33:30;;;;;;;50.07;19.20;;;9.70;99.90;;;;;;5071577;28;20206;-68
2021/11/12 01:36:03;;;;;;;37.90;18.57;;;9.80;99.90;;;;;;5070744;28;20210;-68
2021/11/12 01:38:32;;;;;;;46.17;20.70;;;9.70;99.90;;;;;;5071276;28;20206;-68
2021/11/12 01:41:00;;;;;;;36.57;16.17;;;9.80;99.90;;;;;;5070548;28;20251;-68
2021/11/12 01:43:35;;;;;;;32.93;16.13;;;9.80;99.90;;;;;;5070951;28;20210;-68
2021/11/12 01:46:19;;;;;;;46.53;18.30;;;9.80;99.90;;;;;;5067729;28;20307;-68
2021/11/12 01:49:06;;;;;;;28.77;15.27;;;9.80;99.90;;;;;;5047065;28;20217;-68
2021/11/12 01:51:41;;;;;;;32.70;14.73;;;9.90;99.90;;;;;;5050727;28;20574;-68
2021/11/12 01:54:24;;;;;;;35.37;15.60;;;9.90;99.90;;;;;;5050350;28;20202;-68
2021/11/12 01:57:10;;;;;;;37.60;15.20;;;9.90;99.90;;;;;;5050416;28;20207;-68
2021/11/12 01:59:37;;;;;;;39.93;14.80;;;9.90;99.90;;;;;;5051072;28;20202;-68
2021/11/12 02:02:08;;;;;;;35.77;13.57;;;9.90;99.90;;;;;;5050073;28;20351;-69
2021/11/12 02:04:37;;;;;;;40.23;15.43;;;9.80;99.90;;;;;;5050899;28;20211;-69
2021/11/12 02:07:05;;;;;;;37.40;13.60;;;9.80;99.90;;;;;;5050309;28;21156;-68
2021/11/12 02:09:33;;;;;;;22.37;11.67;;;9.70;99.90;;;;;;5050434;28;20603;-69
2021/11/12 02:12:07;;;;;;;25.73;11.50;;;9.70;99.90;;;;;;5050308;28;20261;-69
2021/11/12 02:14:34;;;;;;;38.17;14.03;;;9.80;99.90;;;;;;5050483;28;20667;-68
2021/11/12 02:17:07;;;;;;;24.17;10.60;;;9.80;99.90;;;;;;5050255;28;20242;-68
2021/11/12 02:19:35;;;;;;;29.03;12.73;;;9.80;99.90;;;;;;5050611;28;20245;-68
2021/11/12 02:22:08;;;;;;;30.93;12.27;;;9.80;99.90;;;;;;5050112;28;20215;-69
2021/11/12 02:24:38;;;;;;;31.27;12.33;;;9.80;99.90;;;;;;5050454;28;20265;-69
2021/11/12 02:27:09;;;;;;;23.77;11.43;;;9.80;99.90;;;;;;5050130;28;20231;-69
2021/11/12 02:29:41;;;;;;;33.17;13.17;;;9.90;99.90;;;;;;5050477;28;20194;-69
2021/11/12 02:32:18;;;;;;;24.07;11.23;;;9.90;99.90;;;;;;5050146;28;20687;-69
2021/11/12 02:34:47;;;;;;;21.20;10.10;;;9.90;99.90;;;;;;5050601;28;20202;-68
2021/11/12 02:37:16;;;;;;;23.63;10.60;;;9.90;99.90;;;;;;5050586;28;20246;-68
2021/11/12 02:39:43;;;;;;;24.97;10.83;;;9.90;97.80;;;;;;5050186;28;20213;-67
2021/11/12 02:42:12;;;;;;;26.77;10.97;;;9.90;95.90;;;;;;5050561;28;20263;-68
2021/11/12 02:44:39;;;;;;;33.80;12.03;;;9.90;71.20;;;;;;5050138;28;20289;-70
2021/11/12 02:47:08;;;;;;;41.90;14.00;;;9.90;60.40;;;;;;5050096;28;20242;-70
2021/11/12 02:49:35;;;;;;;26.37;11.80;;;9.90;59.80;;;;;;5050032;28;20729;-68
2021/11/12 02:52:02;;;;;;;37.23;13.37;;;9.90;86.90;;;;;;5049824;28;20261;-68
2021/11/12 02:54:31;;;;;;;28.83;12.30;;;10.00;99.90;;;;;;5050239;28;20218;-68
2021/11/12 02:57:00;;;;;;;29.63;12.33;;;10.00;99.90;;;;;;5049559;28;20209;-68
2021/11/12 02:59:27;;;;;;;46.13;14.37;;;10.00;99.90;;;;;;5052407;28;20579;-68
2021/11/12 03:01:55;;;;;;;36.97;14.90;;;10.00;88.80;;;;;;5054014;28;20585;-68
2021/11/12 03:04:23;;;;;;;36.47;13.03;;;10.00;65.60;;;;;;5054230;28;20203;-70
2021/11/12 03:06:50;;;;;;;27.10;11.90;;;9.90;58.40;;;;;;5053659;28;20720;-68
2021/11/12 03:09:17;;;;;;;26.60;11.00;;;9.90;67.50;;;;;;5053581;28;20623;-69
2021/11/12 03:11:46;;;;;;;27.97;11.83;;;10.00;90.10;;;;;;5054309;28;20262;-68
2021/11/12 03:14:15;;;;;;;29.77;12.13;;;10.00;93.10;;;;;;5054086;28;20207;-69
2021/11/12 03:16:42;;;;;;;27.40;12.70;;;10.00;99.90;;;;;;5054075;28;20257;-69
2021/11/12 03:19:10;;;;;;;34.30;14.03;;;10.00;99.30;;;;;;5053241;28;20203;-68
2021/11/12 03:21:39;;;;;;;29.83;13.30;;;10.00;87.30;;;;;;5053709;28;20697;-68
2021/11/12 03:24:11;;;;;;;29.70;13.67;;;10.10;99.90;;;;;;5053098;28;20282;-68
2021/11/12 03:26:43;;;;;;;41.50;13.83;;;10.00;98.40;;;;;;5053792;28;20223;-69
2021/11/12 03:59:54;;;;;;;26.97;11.93;;;10.00;93.00;;;;;;5052905;28;20249;-68
2021/11/12 04:02:32;;;;;;;21.37;9.93;;;9.90;89.40;;;;;;5040898;28;20207;-67
2021/11/12 04:05:12;;;;;;;29.97;12.50;;;10.00;88.70;;;;;;5052208;28;20198;-67
2021/11/12 04:18:42;;;;;;;34.40;12.87;;;10.10;99.90;;;;;;5052757;28;20256;-68
2021/11/12 04:40:57;;;;;;;23.60;10.67;;;10.20;78.20;;;;;;5052059;28;20305;-69
2021/11/12 05:11:07;;;;;;;24.17;11.13;;;10.00;31.90;;;;;;5029478;28;20218;-68
2021/11/12 05:43:53;;;;;;;16.20;9.73;;;10.00;1.00;;;;;;5039648;28;20299;-67
2021/11/12 05:46:23;;;;;;;19.47;8.77;;;10.00;1.00;;;;;;5050654;28;20219;-67
2021/11/12 05:51:55;;;;;;;18.83;10.07;;;10.00;1.00;;;;;;5027191;28;20706;-67
2021/11/12 05:57:08;;;;;;;26.87;11.83;;;10.00;1.00;;;;;;5050314;28;20264;-68
2021/11/12 05:59:35;;;;;;;13.90;9.13;;;10.00;1.00;;;;;;5050789;28;20252;-69
2021/11/12 06:02:04;;;;;;;20.97;11.33;;;10.00;1.00;;;;;;5049713;28;20199;-68
2021/11/12 06:04:31;;;;;;;24.83;10.93;;;10.10;1.00;;;;;;5050842;28;20753;-68
2021/11/12 06:06:59;;;;;;;21.90;10.40;;;10.00;1.00;;;;;;5050075;28;20709;-64
2021/11/12 06:09:26;;;;;;;22.73;10.83;;;9.90;1.00;;;;;;5050998;28;20214;-65
2021/11/12 06:11:54;;;;;;;13.07;9.77;;;10.00;1.00;;;;;;5047313;28;20257;-66
2021/11/12 06:14:23;;;;;;;19.33;9.83;;;10.00;1.00;;;;;;5031607;28;20204;-66
2021/11/12 06:16:52;;;;;;;14.90;9.17;;;10.00;1.00;;;;;;5045297;28;20326;-67
2021/11/12 06:19:20;;;;;;;13.63;9.50;;;10.00;1.00;;;;;;5035797;28;20291;-67
2021/11/12 06:21:48;;;;;;;18.40;9.27;;;10.00;1.00;;;;;;5045407;28;20288;-66
2021/11/12 06:24:17;;;;;;;14.83;9.60;;;10.00;1.00;;;;;;5042279;28;20202;-67
2021/11/12 06:26:44;;;;;;;14.43;8.23;;;10.00;1.00;;;;;;5062355;28;20226;-68
2021/11/12 06:29:12;;;;;;;15.23;8.47;;;10.00;1.00;;;;;;5068816;28;20581;-66
2021/11/12 06:31:40;;;;;;;12.90;8.13;;;10.10;1.00;;;;;;5069391;28;20313;-68
2021/11/12 06:34:07;;;;;;;14.93;8.10;;;10.10;1.00;;;;;;5066649;28;20264;-65
2021/11/12 06:36:34;;;;;;;13.50;8.23;;;10.10;1.00;;;;;;5064999;28;20206;-68
2021/11/12 06:39:03;;;;;;;13.30;9.63;;;10.10;1.00;;;;;;5064963;28;20202;-67
2021/11/12 06:41:52;;;;;;;18.87;11.40;;;10.00;1.00;;;;;;5067605;28;20204;-67
2021/11/12 06:44:41;;;;;;;18.70;10.50;;;10.00;1.00;;;;;;5064371;28;20696;-65
2021/11/12 06:49:57;;;;;;;16.13;10.60;;;10.10;1.00;;;;;;5057752;28;20696;-67
2021/11/12 06:52:27;;;;;;;18.43;10.47;;;10.00;1.00;;;;;;5063368;28;20216;-69
2021/11/12 06:54:56;;;;;;;16.90;10.87;;;10.10;1.00;;;;;;5042908;28;20617;-68
2021/11/12 06:57:23;;;;;;;17.33;11.30;;;10.00;1.00;;;;;;5058879;28;20206;-67
2021/11/12 06:59:51;;;;;;;14.93;9.83;;;10.10;1.00;;;;;;5068332;28;20206;-68
2021/11/12 07:02:22;;;;;;;19.27;10.23;;;10.00;1.00;;;;;;5068966;28;20202;-68
2021/11/12 07:04:49;;;;;;;14.10;9.43;;;10.00;1.00;;;;;;5067042;28;20735;-67
2021/11/12 07:07:16;;;;;;;14.07;8.73;;;10.00;1.00;;;;;;5055880;28;20238;-65
2021/11/12 07:09:46;;;;;;;16.33;9.37;;;9.90;1.00;;;;;;5066328;28;20260;-65
2021/11/12 07:12:14;;;;;;;15.33;10.10;;;9.90;1.00;;;;;;5063233;28;20207;-66
2021/11/12 07:14:41;;;;;;;20.43;11.23;;;10.00;1.00;;;;;;5065294;28;20670;-66
2021/11/12 07:17:08;;;;;;;16.07;10.20;;;10.00;1.00;;;;;;5061117;28;20256;-67
2021/11/12 07:19:37;;;;;;;15.30;9.47;;;10.00;1.00;;;;;;5059740;28;20228;-68
2021/11/12 07:22:05;;;;;;;11.53;8.37;;;10.00;1.00;;;;;;5056715;28;20214;-68
2021/11/12 07:24:32;;;;;;;15.83;9.67;;;10.10;1.00;;;;;;5064875;28;20251;-67
2021/11/12 07:27:00;;;;;;;14.33;9.57;;;10.00;1.00;;;;;;5052634;28;20288;-69
2021/11/12 07:29:29;;;;;;;13.27;9.27;;;10.00;1.00;;;;;;5063616;28;20616;-67
2021/11/12 07:31:57;;;;;;;14.87;9.70;;;10.00;1.00;;;;;;5056783;28;20206;-65
2021/11/12 07:34:26;;;;;;;16.03;10.40;;;10.00;1.00;;;;;;5062181;28;20552;-69
2021/11/12 07:37:00;;;;;;;13.67;9.90;;;10.00;1.00;;;;;;5057641;28;20198;-67
2021/11/12 07:39:37;;;;;;;17.43;10.63;;;10.00;1.00;;;;;;5061488;28;20568;-67
2021/11/12 07:42:18;;;;;;;17.47;11.93;;;10.10;1.00;;;;;;5056259;28;20226;-69
2021/11/12 07:47:35;;;;;;;16.63;10.57;;;10.10;1.00;;;;;;5051102;28;20229;-71
2021/11/12 07:50:06;;;;;;;17.17;10.63;;;10.10;1.00;;;;;;5064252;28;20212;-70
2021/11/12 07:52:38;;;;;;;22.23;13.57;;;10.10;1.00;;;;;;5061075;28;20329;-73
2021/11/12 07:55:07;;;;;;;16.57;9.43;;;10.10;1.00;;;;;;5061866;28;20214;-70
2021/11/12 07:57:34;;;;;;;19.23;11.27;;;10.20;1.00;;;;;;5052619;28;20261;-66
2021/11/12 08:00:02;;;;;;;17.87;10.80;;;10.40;1.00;;;;;;5040502;28;20211;-68
2021/11/12 08:02:29;;;;;;;18.17;11.33;;;10.70;1.00;;;;;;5052852;28;20214;-65
2021/11/12 08:05:02;;;;;;;16.33;13.10;;;10.50;1.00;;;;;;5044453;28;20612;-65
2021/11/12 08:07:32;;;;;;;22.73;13.33;;;10.30;1.00;;;;;;5052157;28;20322;-67
2021/11/12 08:10:02;;;;;;;26.20;14.10;;;10.20;1.00;;;;;;5052356;28;20207;-65
2021/11/12 08:12:33;;;;;;;18.67;13.17;;;10.10;1.00;;;;;;5052677;28;20210;-65
2021/11/12 08:15:11;;;;;;;24.20;15.77;;;10.10;1.00;;;;;;5052333;28;20217;-65
2021/11/12 08:17:44;;;;;;;23.03;14.10;;;10.10;1.00;;;;;;5041705;28;20242;-65
2021/11/12 08:20:18;;;;;;;24.27;15.10;;;10.20;1.00;;;;;;5048804;28;20255;-65
2021/11/12 08:22:48;;;;;;;21.77;15.30;;;10.20;1.00;;;;;;5045117;28;20255;-67
2021/11/12 08:25:21;;;;;;;23.70;14.80;;;10.30;1.00;;;;;;5044663;28;20217;-65
2021/11/12 08:30:46;;;;;;;24.77;16.40;;;10.30;1.00;;;;;;5044602;28;20203;-68
2021/11/12 08:33:24;;;;;;;26.67;16.63;;;10.40;1.00;;;;;;5055986;28;20260;-67
2021/11/12 08:38:42;;;;;;;28.77;16.27;;;10.40;1.00;;;;;;5051578;28;20206;-68
2021/11/12 08:41:13;;;;;;;25.87;14.40;;;10.40;1.00;;;;;;5056599;28;20202;-65
2021/11/12 08:43:43;;;;;;;25.53;15.40;;;10.40;1.00;;;;;;5046942;28;20226;-67
2021/11/12 08:48:54;;;;;;;21.10;14.67;;;10.50;1.00;;;;;;4978971;23;20240;-70
2021/11/12 08:51:21;;;;;;;25.43;17.77;;;10.50;1.00;;;;;;4971232;28;20212;-68
2021/11/12 08:53:48;;;;;;;20.17;13.70;;;10.60;1.00;;;;;;4972521;28;20747;-68
2021/11/12 08:56:16;;;;;;;22.83;15.13;;;10.50;1.00;;;;;;4971217;28;20208;-68
2021/11/12 08:58:45;;;;;;;21.37;13.70;;;10.50;1.00;;;;;;4966533;28;20205;-67
2021/11/12 09:01:12;;;;;;;25.33;16.60;;;10.60;1.00;;;;;;4969611;28;20681;-66
2021/11/12 09:03:39;;;;;;;23.00;15.80;;;10.60;1.00;;;;;;4970789;28;20206;-66
2021/11/12 09:06:06;;;;;;;25.50;15.57;;;10.70;1.00;;;;;;4972001;28;20209;-66
2021/11/12 09:08:32;;;;;;;25.83;17.33;;;10.70;1.00;;;;;;4972602;28;20233;-70
2021/11/12 09:10:59;;;;;;;26.23;15.03;;;10.80;1.00;;;;;;4972824;28;20276;-66
2021/11/12 09:13:29;;;;;;;25.90;15.60;;;11.00;1.00;;;;;;4971408;28;20746;-70
2021/11/12 09:15:59;;;;;;;26.37;15.80;;;11.10;1.00;;;;;;4971889;28;21016;-71
2021/11/12 09:18:26;;;;;;;23.73;13.93;;;11.10;1.00;;;;;;4971718;28;20224;-71
2021/11/12 09:20:52;;;;;;;24.43;15.30;;;11.00;1.00;;;;;;4972551;28;20216;-72
2021/11/12 09:23:19;;;;;;;21.13;15.33;;;11.00;1.00;;;;;;4969273;28;20205;-69
2021/11/12 09:25:45;;;;;;;22.65;15.63;;;11.10;1.00;;;;;;4970187;28;20216;-70
2021/11/12 09:28:12;;;;;;;26.93;16.63;;;11.10;1.00;;;;;;4971693;28;20233;-70
2021/11/12 09:30:39;;;;;;;22.77;16.00;;;11.00;1.00;;;;;;4971499;28;20597;-71
2021/11/12 09:33:07;;;;;;;28.07;16.83;;;11.00;1.00;;;;;;4970706;28;20209;-70
2021/11/12 09:35:35;;;;;;;26.02;17.77;;;11.00;1.00;;;;;;4970528;28;20233;-70
2021/11/12 09:38:02;;;;;;;22.40;16.63;;;11.00;1.00;;;;;;4970243;28;20221;-69
2021/11/12 09:40:29;;;;;;;25.27;16.57;;;11.00;1.00;;;;;;4969938;28;20227;-69
2021/11/12 09:42:55;;;;;;;26.50;16.67;;;11.00;1.00;;;;;;4967919;28;20209;-70
2021/11/12 09:45:22;;;;;;;30.23;17.73;;;11.00;1.00;;;;;;4970090;28;20590;-70
2021/11/12 09:47:52;;;;;;;24.07;15.67;;;11.00;1.00;;;;;;4969721;28;20245;-70
2021/11/12 09:50:25;;;;;;;33.65;17.27;;;11.10;1.00;;;;;;4969726;28;20212;-70
2021/11/12 09:52:53;;;;;;;26.43;15.80;;;11.10;1.00;;;;;;4970682;28;20210;-70
2021/11/12 09:55:21;;;;;;;26.83;16.07;;;11.10;1.00;;;;;;4970406;28;20236;-71
2021/11/12 09:57:49;;;;;;;23.80;16.77;;;11.10;1.00;;;;;;4970836;28;20209;-70
2021/11/12 10:00:19;;;;;;;23.73;15.83;;;11.10;1.00;;;;;;4969354;28;20264;-70
2021/11/12 10:02:48;;;;;;;23.42;17.13;;;11.10;1.00;;;;;;4969234;28;20671;-70
2021/11/12 10:05:30;;;;;;;31.53;16.53;;;11.20;1.00;;;;;;4969907;28;20208;-70
2021/11/12 10:07:57;;;;;;;26.95;16.92;;;11.10;1.00;;;;;;4968795;28;20708;-71
2021/11/12 10:10:25;;;;;;;30.27;18.07;;;11.20;1.00;;;;;;4968727;28;20214;-71
2021/11/12 10:12:54;;;;;;;25.52;17.17;;;11.20;1.00;;;;;;4971656;28;20300;-70
2021/11/12 10:15:24;;;;;;;25.03;18.03;;;11.20;1.00;;;;;;4970742;28;20685;-70
2021/11/12 10:17:52;;;;;;;27.05;18.48;;;11.30;1.00;;;;;;4972584;28;20259;-70
2021/11/12 10:20:23;;;;;;;28.30;16.55;;;11.40;1.00;;;;;;4971009;28;20668;-70
2021/11/12 10:22:52;;;;;;;27.35;16.58;;;11.30;99.90;;;;;;4971819;28;20205;-70
2021/11/12 10:25:20;;;;;;;25.25;16.65;;;11.30;1.00;;;;;;4971089;28;20212;-70
2021/11/12 10:27:51;;;;;;;19.70;14.13;;;11.20;1.00;;;;;;4970766;28;20589;-70
2021/11/12 10:30:21;;;;;;;19.55;13.15;;;11.10;1.00;;;;;;4971088;28;20241;-70
2021/11/12 10:32:48;;;;;;;21.10;15.77;;;11.20;1.00;;;;;;4970646;28;20213;-71
2021/11/12 10:35:25;;;;;;;25.37;15.53;;;11.20;1.00;;;;;;4970195;28;20239;-70
2021/11/12 10:37:53;;;;;;;21.33;13.93;;;11.30;99.90;;;;;;4971520;28;20213;-70
2021/11/12 10:40:21;;;;;;;19.17;13.73;;;11.60;99.90;;;;;;4971107;28;20216;-70
2021/11/12 10:42:50;;;;;;;24.92;15.25;;;11.70;99.90;;;;;;4971430;28;20568;-70
2021/11/12 10:45:20;;;;;;;24.15;14.20;;;11.90;99.90;;;;;;4970712;28;20213;-70
2021/11/12 10:47:50;;;;;;;19.67;13.68;;;11.90;99.90;;;;;;4966698;28;20237;-70
2021/11/12 10:50:18;;;;;;;22.87;16.60;;;11.90;99.90;;;;;;4970887;28;20704;-70
2021/11/12 10:52:47;;;;;;;21.58;14.70;;;12.00;99.90;;;;;;4970643;28;20284;-70
2021/11/12 10:55:17;;;;;;;26.35;16.75;;;12.10;99.90;;;;;;4970974;28;20201;-69
2021/11/12 10:57:48;;;;;;;25.45;14.95;;;12.10;99.90;;;;;;4971094;28;20210;-70
2021/11/12 11:00:19;;;;;;;23.92;15.55;;;12.10;99.90;;;;;;4970926;28;20264;-70
2021/11/12 11:02:49;;;;;;;23.13;14.63;;;11.90;99.90;;;;;;4971197;28;20210;-70
2021/11/12 11:05:20;;;;;;;27.25;16.30;;;11.90;99.90;;;;;;4969421;28;20209;-70
2021/11/12 11:07:51;;;;;;;26.58;16.17;;;12.10;99.90;;;;;;4969210;28;20328;-70
2021/11/12 11:10:28;;;;;;;28.95;18.27;;;12.20;99.90;;;;;;4969874;28;20256;-70
2021/11/12 11:12:59;;;;;;;24.45;15.88;;;12.40;99.90;;;;;;4970968;28;20260;-70
2021/11/12 11:15:35;;;;;;;18.85;13.68;;;12.60;99.90;;;;;;4969791;28;20217;-70
2021/11/12 11:18:19;;;;;;;23.52;13.10;;;12.70;99.90;;;;;;4970978;28;20369;-70
2021/11/12 11:20:49;;;;;;;22.50;14.25;;;12.90;99.90;;;;;;4973493;28;20205;-70
2021/11/12 11:23:17;;;;;;;23.75;14.55;;;12.80;99.90;;;;;;4974921;28;20206;-70
2021/11/12 11:25:59;;;;;;;23.17;13.95;;;12.80;99.90;;;;;;4974339;28;20202;-70
2021/11/12 11:28:27;;;;;;;18.90;13.48;;;13.00;99.90;;;;;;4974163;28;20221;-70
2021/11/12 11:30:54;;;;;;;26.98;13.05;;;13.10;99.90;;;;;;4974877;28;20214;-70
2021/11/12 11:33:22;;;;;;;20.75;13.20;;;13.10;99.90;;;;;;4974437;28;20205;-70
2021/11/12 11:35:55;;;;;;;15.77;12.35;;;13.10;99.90;;;;;;4973904;28;20300;-70
2021/11/12 11:38:28;;;;;;;21.52;13.65;;;13.30;99.90;;;;;;4974310;28;20284;-70
2021/11/12 11:40:56;;;;;;;20.23;12.63;;;13.30;99.90;;;;;;4974679;28;20288;-70
2021/11/12 11:43:25;;;;;;;19.40;12.68;;;13.00;99.90;;;;;;4974153;28;20202;-70
2021/11/12 11:45:53;;;;;;;16.67;11.90;;;12.80;99.90;;;;;;4974533;28;20210;-70
2021/11/12 11:48:21;;;;;;;22.67;14.50;;;12.80;99.90;;;;;;4969934;28;20716;-70
2021/11/12 11:50:52;;;;;;;16.83;12.48;;;12.90;99.90;;;;;;4972562;28;20256;-70
2021/11/12 11:53:26;;;;;;;19.73;12.98;;;12.70;99.90;;;;;;4971858;28;20212;-70
2021/11/12 11:56:10;;;;;;;26.58;18.30;;;12.60;99.90;;;;;;4973288;28;20213;-69
2021/11/12 11:58:41;;;;;;;14.68;12.02;;;12.60;99.90;;;;;;4970606;28;20213;-70
2021/11/12 12:01:27;;;;;;;15.73;10.75;;;12.60;99.90;;;;;;4974007;28;20241;-69
2021/11/12 12:04:28;;;;;;;15.07;9.68;;;12.50;99.90;;;;;;4974209;28;20233;-70
2021/11/12 12:07:20;;;;;;;15.13;9.40;;;12.50;99.90;;;;;;4973930;28;20214;-70
2021/11/12 12:10:00;;;;;;;10.27;9.07;;;12.50;99.90;;;;;;4936063;28;20217;-70
2021/11/12 12:12:56;;;;;;;16.00;9.93;;;12.50;99.90;;;;;;4972199;28;20457;-69
2021/11/12 12:15:44;;;;;;;12.95;8.48;;;12.40;99.90;;;;;;4973553;28;20209;-71
2021/11/12 12:18:27;;;;;;;17.98;10.98;;;12.30;99.90;;;;;;4970200;28;20202;-70
2021/11/12 12:21:39;;;;;;;11.75;9.18;;;12.50;99.90;;;;;;4972372;28;20668;-70
2021/11/12 13:22:39;;;;;;;66.45;46.63;;;13.50;99.90;;;;;;4968768;28;20210;-69
2021/11/12 13:25:09;;;;;;;34.15;23.98;;;13.50;99.90;;;;;;4972405;28;20205;-70
2021/11/12 13:27:36;;;;;;;65.43;45.15;;;13.60;99.90;;;;;;4972824;28;20213;-69
2021/11/12 13:30:04;;;;;;;31.92;19.65;;;13.60;99.90;;;;;;4972985;28;20252;-69
2021/11/12 13:32:37;;;;;;;100.55;73.93;;;13.70;99.90;;;;;;4972178;28;20201;-69
2021/11/12 13:35:04;;;;;;;49.47;34.70;;;13.80;99.90;;;;;;4972858;28;20210;-69
2021/11/12 13:37:33;;;;;;;15.32;10.23;;;13.80;99.90;;;;;;4972001;28;20288;-70
2021/11/12 13:40:10;;;;;;;9.48;8.43;;;13.80;99.90;;;;;;4972634;28;20301;-70
2021/11/12 13:42:44;;;;;;;9.85;7.95;;;13.70;99.90;;;;;;4972250;28;20224;-69
2021/11/12 13:45:15;;;;;;;26.77;16.58;;;13.60;99.90;;;;;;4971817;28;20263;-70
2021/11/12 13:47:42;;;;;;;14.23;9.95;;;13.60;99.90;;;;;;4967183;28;20218;-71
2021/11/12 13:50:10;;;;;;;10.00;9.00;;;13.70;99.90;;;;;;4972070;28;20206;-70
2021/11/12 13:52:43;;;;;;;14.15;7.93;;;13.70;99.90;;;;;;4965535;28;20264;-69
2021/11/12 13:55:13;;;;;;;8.77;6.65;;;13.70;99.90;;;;;;4965243;28;20296;-69
2021/11/12 13:57:52;;;;;;;10.00;6.93;;;13.60;99.90;;;;;;4972038;28;20216;-69
2021/11/12 14:00:20;;;;;;;9.27;7.70;;;13.60;99.90;;;;;;4971553;28;20205;-70
2021/11/12 14:02:53;;;;;;;8.70;6.35;;;13.50;99.90;;;;;;4972262;28;20209;-70
2021/11/12 14:05:21;;;;;;;9.30;7.20;;;13.50;99.90;;;;;;4971495;28;20244;-70
2021/11/12 14:08:00;;;;;;;6.60;5.75;;;13.60;99.90;;;;;;4971566;28;20264;-70
2021/11/12 14:10:34;;;;;;;7.95;6.93;;;13.40;99.90;;;;;;4970896;28;20736;-69
2021/11/12 14:13:03;;;;;;;8.65;6.45;;;13.40;99.90;;;;;;4971643;28;20215;-70
2021/11/12 14:15:35;;;;;;;10.35;7.63;;;13.40;99.90;;;;;;4970849;28;20677;-76
2021/11/12 14:18:19;;;;;;;10.18;7.55;;;13.40;99.90;;;;;;4971813;28;20279;-71
2021/11/12 14:20:55;;;;;;;9.73;7.55;;;13.30;99.90;;;;;;4970996;28;20707;-71
2021/11/12 14:23:28;;;;;;;8.88;6.60;;;13.30;99.90;;;;;;4971169;28;20289;-71
2021/11/12 14:26:21;;;;;;;9.77;8.05;;;13.20;99.90;;;;;;4971063;28;20213;-72
2021/11/12 14:28:52;;;;;;;8.15;7.30;;;13.20;99.90;;;;;;4971171;28;20227;-72
2021/11/12 14:34:33;;;;;;;15.07;9.60;;;13.20;99.90;;;;;;4954971;28;20320;-72
2021/11/12 14:37:04;;;;;;;14.77;9.98;;;13.10;99.90;;;;;;4971620;28;20205;-71
2021/11/12 14:39:48;;;;;;;12.00;8.35;;;13.00;99.90;;;;;;4970747;28;20197;-72
2021/11/12 14:45:17;;;;;;;12.10;9.48;;;13.10;99.90;;;;;;4951326;28;20215;-70
2021/11/12 14:53:26;;;;;;;11.05;7.53;;;13.00;99.90;;;;;;4968450;28;20296;-71
2021/11/12 14:56:02;;;;;;;9.77;7.70;;;13.00;99.90;;;;;;4973632;28;20700;-71
2021/11/12 14:58:29;;;;;;;10.13;7.63;;;13.00;99.90;;;;;;4975076;28;20295;-71
2021/11/12 15:01:05;;;;;;;11.07;7.88;;;12.90;99.90;;;;;;4975177;28;20205;-71
2021/11/12 15:03:34;;;;;;;11.40;7.13;;;12.80;99.90;;;;;;4975069;28;20212;-72
2021/11/12 15:06:01;;;;;;;9.60;6.38;;;12.70;99.90;;;;;;4973491;28;20693;-72
2021/11/12 15:08:29;;;;;;;11.52;6.95;;;12.60;99.90;;;;;;4972812;28;20233;-72
2021/11/12 15:10:59;;;;;;;8.73;7.18;;;12.70;99.90;;;;;;4974417;28;20214;-72
2021/11/12 15:13:29;;;;;;;11.68;7.30;;;12.70;99.90;;;;;;4971434;28;20216;-71
2021/11/12 15:15:58;;;;;;;8.93;6.80;;;12.70;99.90;;;;;;4975154;28;20205;-72
2021/11/12 15:18:26;;;;;;;11.32;7.05;;;12.60;99.90;;;;;;4974990;28;20209;-72
2021/11/12 15:20:56;;;;;;;7.65;6.85;;;12.60;99.90;;;;;;4974890;28;20213;-72
2021/11/12 15:26:20;;;;;;;9.55;7.72;;;12.60;99.90;;;;;;4973131;28;20320;-70
2021/11/12 15:28:53;;;;;;;9.00;7.80;;;12.60;99.90;;;;;;4974182;28;20721;-70
2021/11/12 15:31:22;;;;;;;10.25;7.20;;;12.60;99.90;;;;;;4969595;28;20256;-71
2021/11/12 15:33:57;;;;;;;8.45;6.45;;;12.60;99.90;;;;;;4974029;28;20210;-72
2021/11/12 15:36:24;;;;;;;8.85;6.30;;;12.50;99.90;;;;;;4968271;28;20232;-72
2021/11/12 15:38:55;;;;;;;9.50;6.85;;;12.40;99.90;;;;;;4973837;28;20217;-71
2021/11/12 15:41:50;;;;;;;14.75;7.75;;;12.30;99.90;;;;;;4974362;28;20205;-71
2021/11/12 15:44:19;;;;;;;8.35;6.35;;;12.30;99.90;;;;;;4974321;28;20217;-71
2021/11/12 15:46:47;;;;;;;9.82;7.10;;;12.30;99.90;;;;;;4974528;28;20652;-71
2021/11/12 15:49:18;;;;;;;9.68;7.35;;;12.30;99.90;;;;;;4974080;28;20320;-71
2021/11/12 15:51:46;;;;;;;8.30;6.70;;;12.30;99.90;;;;;;4969976;28;20214;-71
2021/11/12 15:54:33;;;;;;;10.98;7.30;;;12.30;99.90;;;;;;4974067;28;20260;-71
2021/11/12 15:57:44;;;;;;;11.00;7.90;;;12.30;99.90;;;;;;4971965;28;20308;-72
2021/11/12 16:00:29;;;;;;;10.63;7.25;;;12.20;99.90;;;;;;4973934;28;20210;-72
2021/11/12 16:03:32;;;;;;;11.30;8.20;;;12.10;99.90;;;;;;4974225;28;20249;-71
2021/11/12 16:09:19;;;;;;;19.60;8.68;;;12.10;99.90;;;;;;4953717;28;20237;-71
2021/11/12 16:14:37;;;;;;;15.80;9.43;;;12.10;99.90;;;;;;4949337;28;20280;-72
2021/11/12 16:17:23;;;;;;;10.20;8.52;;;12.10;99.90;;;;;;4974294;28;20248;-71
2021/11/12 16:19:56;;;;;;;13.88;8.43;;;12.10;99.90;;;;;;4973840;28;20216;-72
2021/11/12 16:25:13;;;;;;;14.20;9.32;;;12.00;99.90;;;;;;4972754;28;20213;-69
2021/11/12 16:27:43;;;;;;;9.68;7.85;;;12.00;99.90;;;;;;4973967;28;20202;-71
2021/11/12 16:30:14;;;;;;;13.10;9.45;;;11.90;99.90;;;;;;4971537;28;20248;-71
2021/11/12 16:32:43;;;;;;;13.60;9.48;;;11.80;99.90;;;;;;4973200;28;20206;-71
2021/11/12 16:35:14;;;;;;;9.40;8.38;;;11.80;99.90;;;;;;4963754;28;20205;-71
2021/11/12 16:37:41;;;;;;;11.57;8.07;;;11.80;99.90;;;;;;4970193;28;20210;-71
2021/11/12 16:40:14;;;;;;;9.13;7.68;;;11.80;99.90;;;;;;4973120;28;20704;-70
2021/11/12 16:42:54;;;;;;;10.55;8.25;;;11.90;99.90;;;;;;4973320;28;20241;-72
2021/11/12 16:45:34;;;;;;;11.68;7.28;;;11.90;99.90;;;;;;4973047;28;20212;-73
2021/11/12 16:48:12;;;;;;;9.02;7.10;;;11.90;99.90;;;;;;4972983;28;20700;-72